Nearby METAR Reports

 

EGEO - Oban, United Kingdom
Distance from station: SSW 18mi, 30km
Updated: 28/09/2021 11:50
Few Clouds
Few Clouds
 Wind from S
Wind: S 12 mph , 19 km/h
Temperature: 12°C
Dew Point: 7°C
Humidity: 72%
Barometer: 1006 hPa
Clouds: Few Clouds
Visibility: 6 miles , 10 km
Cloud details: Few Clouds 701 m
2021/09/28 10:50 EGEO 281050Z 19010KT 9999 FEW023 12/07 Q1006
EGPU - Tiree, United Kingdom
Distance from station: WSW 64mi, 103km
Updated: 28/09/2021 11:50
Partly cloudy
Partly cloudy
 Wind from SSW
Wind: SSW 23 mph , 37 km/h
Temperature: 12°C
Dew Point: 7°C
Humidity: 72%
Barometer: 1004 hPa
Clouds: Partly cloudy
Visibility: 6 miles , 10 km
Cloud details: Few Clouds 671 m
Partly cloudy 732 m
2021/09/28 10:50 EGPU 281050Z 20020KT 9999 FEW022 SCT024CB 12/07 Q1004
EGPF - Glasgow, United Kingdom
Distance from station: SSE 66mi, 107km
Updated: 28/09/2021 11:50
Mostly cloudy
Mostly cloudy
 Wind from S
Wind: S 9 mph , 15 km/h
Temperature: 13°C
Dew Point: 8°C
Humidity: 72%
Barometer: 1008 hPa
Clouds: Mostly cloudy
Visibility: 6 miles , 10 km
Cloud details: Partly cloudy 762 m
Mostly cloudy 914 m
2021/09/28 10:50 EGPF 281050Z AUTO 19008KT 160V230 9999 SCT025 BKN030 13/08 Q1008
 
EGPE - Inverness, United Kingdom
Distance from station: NE 71mi, 114km
Updated: 28/09/2021 11:50
Few Clouds
Few Clouds
 Wind from SSW
Wind: SSW 15 mph , 24 km/h
Temperature: 14°C
Dew Point: 6°C
Humidity: 59%
Barometer: 1005 hPa
Clouds: Few Clouds
Visibility: 6 miles , 10 km
Cloud details: Few Clouds 884 m
2021/09/28 10:50 EGPE 281050Z 21013KT 9999 FEW029 14/06 Q1005
EGPI - Islay/Port Ellen, United Kingdom
Distance from station: SSW 81mi, 131km
Updated: 28/09/2021 11:50
Few Clouds
Few Clouds
 Wind from S
Wind: S 14 mph , 22 km/h
Temperature: 13°C
Dew Point: 8°C
Humidity: 72%
Barometer: 1006 hPa
Clouds: Few Clouds
Visibility: 6 miles , 10 km
Cloud details: Few Clouds 610 m
2021/09/28 10:50 EGPI 281050Z 19012KT 9999 FEW020 13/08 Q1006
EGPN - Dundee/Riverside, United Kingdom
Distance from station: E 86mi, 138km
Updated: 28/09/2021 11:50
Few Clouds
Few Clouds
 Wind from S
Wind: S 14 mph , 22 km/h
Temperature: 13°C
Dew Point: 8°C
Humidity: 72%
Barometer: 1009 hPa
Clouds: Few Clouds
Visibility: 6 miles , 10 km
Cloud details: Few Clouds 701 m
2021/09/28 10:50 EGPN 281050Z 18012KT 9999 FEW023 13/08 Q1009
 
EGPK - Prestwick, United Kingdom
Distance from station: SSE 88mi, 141km
Updated: 28/09/2021 11:50
Few Clouds
Few Clouds
 Wind from SSW
Wind: SSW 12 mph , 19 km/h
Temperature: 13°C
Dew Point: 8°C
Humidity: 72%
Barometer: 1007 hPa
Clouds: Few Clouds
Visibility: 6 miles , 10 km
Cloud details: Few Clouds 853 m
2021/09/28 10:50 EGPK 281050Z 20010KT 9999 FEW028 13/08 Q1007
EGPH - Edinburgh, United Kingdom
Distance from station: SE 89mi, 143km
Updated: 28/09/2021 11:50
Few Clouds
Few Clouds
 Wind from SSW
Wind: SSW 10 mph , 17 km/h
Temperature: 13°C
Dew Point: 8°C
Humidity: 72%
Barometer: 1008 hPa
Clouds: Few Clouds
Visibility: 6 miles , 10 km
Cloud details: Few Clouds 914 m
2021/09/28 10:50 EGPH 281050Z 21009KT 9999 FEW030 13/08 Q1008
EGQK - RAF Kinloss, United Kingdom
Distance from station: NE 90mi, 144km
Updated: 28/09/2021 10:50
NOT Current
Few Clouds
Few Clouds
 Wind from varies
Wind: varies 0 mph , 0 km/h
Clouds: Few Clouds
Visibility: 6 miles , 10 km
Cloud details: Few Clouds 1372 m
2021/09/28 09:50 EGQK 280950Z AUTO /////KT 9999 // FEW045/// ///// Q////
 
EGEC - Campbeltown, United Kingdom
Distance from station: S 90mi, 145km
Updated: 28/09/2021 11:50
Mostly cloudy
Mostly cloudy
 Wind from S
Wind: S 9 mph , 15 km/h
Temperature: 12°C
Dew Point: 9°C
Humidity: 82%
Barometer: 1007 hPa
Clouds: Mostly cloudy
Visibility: 6 miles , 10 km
Cloud details: Few Clouds 610 m
Mostly cloudy 1463 m
2021/09/28 10:50 EGEC 281050Z 19008KT 9999 FEW020 BKN048 12/09 Q1007
EGQA - Tain Range, United Kingdom
Distance from station: NNE 91mi, 146km
Updated: 28/09/2021 11:50
Nearby showers, Partly cloudy
Nearby showers, Partly cloudy
 Wind from SSE
Wind: SSE 15 mph , 24 km/h
Summary: Nearby Showers
Clouds: Partly cloudy
Visibility: 6 miles , 10 km
Cloud details: Few Clouds 396 m
Partly cloudy 884 m
2021/09/28 10:50 EGQA 281050Z 16013KT 9999 VCSH FEW013 SCT029 13/// Q1006 RMK BLU
EGQL - RAF Leuchars, United Kingdom
Distance from station: ESE 93mi, 149km
Updated: 28/09/2021 11:50
Mostly cloudy
Mostly cloudy
 Wind from S
Wind: S 13 mph , 20 km/h
Temperature: 13°C
Dew Point: 8°C
Humidity: 72%
Barometer: 1008 hPa
Clouds: Mostly cloudy
Visibility: 6 miles , 10 km
Cloud details: Few Clouds 823 m
Partly cloudy 1524 m
Mostly cloudy 4572 m
2021/09/28 10:50 EGQL 281050Z 18011KT 9999 FEW027 SCT050 BKN150 13/08 Q1008 RMK BLU
 
EGPL - Benbecula, United Kingdom
Distance from station: WNW 96mi, 154km
Updated: 28/09/2021 11:50
Nearby showers, Mostly cloudy
Nearby showers, Mostly cloudy
 Wind from S
Wind: S 10 mph , 17 km/h
Temperature: 10°C
Wind Chill: 8°C
Dew Point: 8°C
Humidity: 88%
Barometer: 1002 hPa
Summary: Nearby Showers
Clouds: Mostly cloudy
Visibility: 6 miles , 10 km
Cloud details: Few Clouds 30 m
Partly cloudy 610 m
Mostly cloudy 975 m
2021/09/28 10:50 EGPL 281050Z 18009KT 9999 VCSH FEW001 SCT020CB BKN032 10/08 Q1002
EGQS - RAF Lossiemouth, United Kingdom
Distance from station: NE 99mi, 160km
Updated: 28/09/2021 11:50
Few Clouds
Few Clouds
 Wind from SSW
Wind: SSW 15 mph , 24 km/h
Temperature: 14°C
Dew Point: 5°C
Humidity: 55%
Barometer: 1006 hPa
Clouds: Few Clouds
Visibility: 6 miles , 10 km
Cloud details: Few Clouds 914 m
2021/09/28 10:50 EGQS 281050Z 20013KT 9999 FEW030 14/05 Q1006 NOSIG RMK BLU BLU
EGPO - Stornoway, United Kingdom
Distance from station: NNW 111mi, 179km
Updated: 28/09/2021 11:50
Light rain, Showers, Mostly cloudy
Light rain, Showers, Mostly cloudy
 Wind from S
Wind: S 30 mph , 48 km/h
Temperature: 9°C
Wind Chill: 4°C
Dew Point: 7°C
Humidity: 87%
Barometer: 1002 hPa
Summary: Light rain, Showers
Clouds: Mostly cloudy
Visibility: 6 miles , 10 km
Cloud details: Few Clouds 488 m
Mostly cloudy 610 m
2021/09/28 10:50 EGPO 281050Z 18026KT 9999 -SHRA FEW016 BKN020CB 09/07 Q1002
 
EGPD - Aberdeen/Dyce, United Kingdom
Distance from station: ENE 118mi, 190km
Updated: 28/09/2021 11:50
Mostly cloudy
Mostly cloudy
 Wind from SSW
Wind: SSW 15 mph , 24 km/h
Temperature: 13°C
Dew Point: 8°C
Humidity: 72%
Barometer: 1009 hPa
Clouds: Mostly cloudy
Visibility: 6 miles , 10 km
Cloud details: Mostly cloudy 762 m
2021/09/28 10:50 EGPD 281050Z AUTO 20013KT 160V230 9999 BKN025 13/08 Q1009 NOSIG
EGAE - Eglinton/Londond, United Kingdom
Distance from station: SSW 138mi, 222km
Updated: 28/09/2021 11:50
Partly cloudy
Partly cloudy
 Wind from SSW
Wind: SSW 16 mph , 26 km/h
Temperature: 13°C
Dew Point: 8°C
Humidity: 72%
Barometer: 1006 hPa
Clouds: Partly cloudy
Visibility: 6 miles , 10 km
Cloud details: Few Clouds 549 m
Partly cloudy 762 m
2021/09/28 10:50 EGAE 281050Z 20014KT 9999 FEW018 SCT025 13/08 Q1006
EGPC - Wick, United Kingdom
Distance from station: NNE 144mi, 232km
Updated: 28/09/2021 11:50
Few Clouds
Few Clouds
 Wind from S
Wind: S 15 mph , 24 km/h
Temperature: 13°C
Dew Point: 6°C
Humidity: 63%
Barometer: 1006 hPa
Clouds: Few Clouds
Visibility: 6 miles , 10 km
Cloud details: Few Clouds 610 m
2021/09/28 10:50 EGPC 281050Z 18013KT 9999 FEW020 13/06 Q1006

Metar display script from Saratoga-Weather.org